首页
METAR-TAF:

METAR-TAF

机场 :

迪拜国际机场

杜拜, 阿拉伯联合酋长国

纬度: 25-15-10N, 经度: 055-21-52E, 海拔: 8米

当前天气观测

该预报发布于55分钟前的12:00 UTC
风速9节,风向,在北转西北东北之间变化
温度 29°C
湿度 27%
气压 1015 hPa
能見度: 8000

METAR: OMDB 171200Z 36009KT 330V040 8000 NSC 29/08 Q1015 NOSIG

时间: 16:55 (12:55 UTC)

预报

该预报发布于2小时和4分钟前的10:51 UTC
预报有效从17日的 12点(UTC)到 18日的 18点(UTC)
风速10节,风向
能見度: 8000
成为
从 17日的 15点(UTC)到 17日的 17点(UTC)
风速5节,风向
成为
从 18日的 09点(UTC)到 18日的 11点(UTC)
风速10节,风向北转西北
成为
从 18日的 15点(UTC)到 18日的 17点(UTC)
风速5节,风向东转东北

TAF: OMDB 171051Z 1712/1818 35010KT 8000 NSC BECMG 1715/1717 10005KT BECMG 1809/1811 34010KT BECMG 1815/1817 06005KT

超过4000个机场的气象观测和天气预报(METAR&TAF报告)。

可查询的气象台以黄色和红色小点在地图上表示。

将鼠标移到小点上方,可查看气象台名称。

然后点击查看天气观测和预报。

如需切换地图:点击带黑十字的绿色按钮放大地图;点击带横线的绿色按钮缩小地图;或者点击绿色箭头查看邻近地区的地图。


METAR-TAF: